sensor_id;sensor_type;location;lat;lon;timestamp;pressure;altitude;pressure_sealevel;temperature;humidity
11223;BME280;5668;52.012;8.724;2023-02-02T00:01:12;100295.31;;;6.76;95.17
11223;BME280;5668;52.012;8.724;2023-02-02T00:03:39;100289.31;;;6.75;95.26
11223;BME280;5668;52.012;8.724;2023-02-02T00:06:07;100295.38;;;6.74;95.56
11223;BME280;5668;52.012;8.724;2023-02-02T00:08:34;100292.72;;;6.76;95.19
11223;BME280;5668;52.012;8.724;2023-02-02T00:11:04;100298.78;;;6.75;95.35
11223;BME280;5668;52.012;8.724;2023-02-02T00:13:32;100315.19;;;6.74;95.39
11223;BME280;5668;52.012;8.724;2023-02-02T00:16:36;100316.88;;;6.75;96.02
11223;BME280;5668;52.012;8.724;2023-02-02T00:19:05;100304.03;;;6.73;95.52
11223;BME280;5668;52.012;8.724;2023-02-02T00:21:33;100304.88;;;6.74;95.82
11223;BME280;5668;52.012;8.724;2023-02-02T00:24:03;100309.28;;;6.72;96.25
11223;BME280;5668;52.012;8.724;2023-02-02T00:26:31;100315.19;;;6.74;96.44
11223;BME280;5668;52.012;8.724;2023-02-02T00:28:59;100315.34;;;6.71;96.38
11223;BME280;5668;52.012;8.724;2023-02-02T00:31:26;100313.69;;;6.70;95.85
11223;BME280;5668;52.012;8.724;2023-02-02T00:33:53;100308.53;;;6.70;95.67
11223;BME280;5668;52.012;8.724;2023-02-02T00:36:20;100315.53;;;6.68;96.01
11223;BME280;5668;52.012;8.724;2023-02-02T00:38:49;100305.34;;;6.65;96.24
11223;BME280;5668;52.012;8.724;2023-02-02T00:41:16;100309.53;;;6.67;96.26
11223;BME280;5668;52.012;8.724;2023-02-02T00:43:45;100304.38;;;6.67;96.14
11223;BME280;5668;52.012;8.724;2023-02-02T00:46:32;100314.78;;;6.66;95.41
11223;BME280;5668;52.012;8.724;2023-02-02T00:48:58;100311.44;;;6.64;95.85
11223;BME280;5668;52.012;8.724;2023-02-02T00:51:26;100313.88;;;6.67;95.59
11223;BME280;5668;52.012;8.724;2023-02-02T00:53:53;100317.28;;;6.67;95.71
11223;BME280;5668;52.012;8.724;2023-02-02T00:56:20;100322.53;;;6.66;95.53
11223;BME280;5668;52.012;8.724;2023-02-02T00:58:49;100325.03;;;6.67;95.80
11223;BME280;5668;52.012;8.724;2023-02-02T01:01:16;100327.69;;;6.66;95.11
11223;BME280;5668;52.012;8.724;2023-02-02T01:03:46;100330.19;;;6.67;95.11
11223;BME280;5668;52.012;8.724;2023-02-02T01:06:13;100332.84;;;6.66;94.99
11223;BME280;5668;52.012;8.724;2023-02-02T01:08:40;100336.19;;;6.68;95.57
11223;BME280;5668;52.012;8.724;2023-02-02T01:11:07;100336.34;;;6.65;95.22
11223;BME280;5668;52.012;8.724;2023-02-02T01:13:35;100332.94;;;6.64;95.35
11223;BME280;5668;52.012;8.724;2023-02-02T01:16:04;100336.50;;;6.61;95.55
11223;BME280;5668;52.012;8.724;2023-02-02T01:18:32;100327.84;;;6.63;95.58
11223;BME280;5668;52.012;8.724;2023-02-02T01:21:01;100334.75;;;6.62;95.66
11223;BME280;5668;52.012;8.724;2023-02-02T01:23:29;100334.69;;;6.64;95.47
11223;BME280;5668;52.012;8.724;2023-02-02T01:25:57;100330.53;;;6.61;94.71
11223;BME280;5668;52.012;8.724;2023-02-02T01:28:26;100340.03;;;6.60;94.95
11223;BME280;5668;52.012;8.724;2023-02-02T01:30:53;100336.50;;;6.61;95.55
11223;BME280;5668;52.012;8.724;2023-02-02T01:33:22;100335.84;;;6.58;95.47
11223;BME280;5668;52.012;8.724;2023-02-02T01:35:52;100339.19;;;6.60;95.13
11223;BME280;5668;52.012;8.724;2023-02-02T01:38:21;100340.03;;;6.60;95.80
11223;BME280;5668;52.012;8.724;2023-02-02T01:40:52;100333.19;;;6.59;95.64
11223;BME280;5668;52.012;8.724;2023-02-02T01:43:22;100346.16;;;6.58;95.24
11223;BME280;5668;52.012;8.724;2023-02-02T01:45:50;100348.75;;;6.58;95.83
11223;BME280;5668;52.012;8.724;2023-02-02T01:48:21;100349.66;;;6.57;95.48
11223;BME280;5668;52.012;8.724;2023-02-02T01:50:54;100351.41;;;6.56;95.57
11223;BME280;5668;52.012;8.724;2023-02-02T01:53:23;100348.91;;;6.55;96.12
11223;BME280;5668;52.012;8.724;2023-02-02T01:55:52;100353.34;;;6.53;96.40
11223;BME280;5668;52.012;8.724;2023-02-02T01:58:22;100359.41;;;6.52;96.39
11223;BME280;5668;52.012;8.724;2023-02-02T02:00:50;100361.16;;;6.51;96.62
11223;BME280;5668;52.012;8.724;2023-02-02T02:03:21;100362.81;;;6.52;96.17
11223;BME280;5668;52.012;8.724;2023-02-02T02:05:52;100366.91;;;6.56;96.47
11223;BME280;5668;52.012;8.724;2023-02-02T02:08:23;100362.63;;;6.55;96.39
11223;BME280;5668;52.012;8.724;2023-02-02T02:10:52;100361.91;;;6.53;96.09
11223;BME280;5668;52.012;8.724;2023-02-02T02:13:21;100367.81;;;6.55;97.14
11223;BME280;5668;52.012;8.724;2023-02-02T02:16:16;100368.91;;;6.51;95.96
11223;BME280;5668;52.012;8.724;2023-02-02T02:18:51;100368.13;;;6.49;96.63
11223;BME280;5668;52.012;8.724;2023-02-02T02:21:39;100369.81;;;6.50;97.00
11223;BME280;5668;52.012;8.724;2023-02-02T02:25:00;100380.13;;;6.50;96.82
11223;BME280;5668;52.012;8.724;2023-02-02T02:28:20;100380.44;;;6.44;96.42
11223;BME280;5668;52.012;8.724;2023-02-02T02:34:08;100383.78;;;6.46;97.32
11223;BME280;5668;52.012;8.724;2023-02-02T02:36:44;100388.97;;;6.46;97.26
11223;BME280;5668;52.012;8.724;2023-02-02T02:39:19;100383.63;;;6.49;97.60
11223;BME280;5668;52.012;8.724;2023-02-02T02:41:50;100388.63;;;6.52;97.07
11223;BME280;5668;52.012;8.724;2023-02-02T02:44:20;100374.97;;;6.50;97.17
11223;BME280;5668;52.012;8.724;2023-02-02T02:46:49;100382.03;;;6.47;97.03
11223;BME280;5668;52.012;8.724;2023-02-02T02:49:18;100387.09;;;6.48;97.42
11223;BME280;5668;52.012;8.724;2023-02-02T02:51:47;100388.78;;;6.49;97.16
11223;BME280;5668;52.012;8.724;2023-02-02T02:54:17;100392.97;;;6.52;98.17
11223;BME280;5668;52.012;8.724;2023-02-02T02:59:54;100383.63;;;6.49;98.19
11223;BME280;5668;52.012;8.724;2023-02-02T03:02:32;100388.72;;;6.51;98.14
11223;BME280;5668;52.012;8.724;2023-02-02T03:05:17;100392.88;;;6.53;98.16
11223;BME280;5668;52.012;8.724;2023-02-02T03:07:49;100391.94;;;6.54;98.93
11223;BME280;5668;52.012;8.724;2023-02-02T03:10:21;100393.63;;;6.55;98.65
11223;BME280;5668;52.012;8.724;2023-02-02T03:12:51;100403.94;;;6.55;98.04
11223;BME280;5668;52.012;8.724;2023-02-02T03:15:19;100401.38;;;6.55;98.25
11223;BME280;5668;52.012;8.724;2023-02-02T03:17:47;100405.63;;;6.56;98.43
11223;BME280;5668;52.012;8.724;2023-02-02T03:20:18;100398.63;;;6.58;98.25
11223;BME280;5668;52.012;8.724;2023-02-02T03:22:46;100397.72;;;6.59;99.19
11223;BME280;5668;52.012;8.724;2023-02-02T03:25:13;100391.53;;;6.62;99.12
11223;BME280;5668;52.012;8.724;2023-02-02T03:27:42;100398.31;;;6.65;98.26
11223;BME280;5668;52.012;8.724;2023-02-02T03:30:11;100399.28;;;6.62;98.65
11223;BME280;5668;52.012;8.724;2023-02-02T03:32:40;100399.22;;;6.64;99.06
11223;BME280;5668;52.012;8.724;2023-02-02T03:35:08;100398.47;;;6.61;98.40
11223;BME280;5668;52.012;8.724;2023-02-02T03:37:37;100405.28;;;6.63;98.49
11223;BME280;5668;52.012;8.724;2023-02-02T03:40:06;100404.31;;;6.65;99.40
11223;BME280;5668;52.012;8.724;2023-02-02T03:42:34;100406.97;;;6.64;98.77
11223;BME280;5668;52.012;8.724;2023-02-02T03:45:01;100401.97;;;6.60;98.90
11223;BME280;5668;52.012;8.724;2023-02-02T03:47:29;100407.81;;;6.64;99.17
11223;BME280;5668;52.012;8.724;2023-02-02T03:49:56;100405.16;;;6.66;98.51
11223;BME280;5668;52.012;8.724;2023-02-02T03:52:24;100411.06;;;6.68;99.31
11223;BME280;5668;52.012;8.724;2023-02-02T03:54:53;100399.91;;;6.67;99.87
11223;BME280;5668;52.012;8.724;2023-02-02T03:57:20;100403.31;;;6.68;99.82
11223;BME280;5668;52.012;8.724;2023-02-02T03:59:47;100410.97;;;6.69;98.80
11223;BME280;5668;52.012;8.724;2023-02-02T04:02:14;100405.81;;;6.69;99.84
11223;BME280;5668;52.012;8.724;2023-02-02T04:04:41;100412.56;;;6.72;99.27
11223;BME280;5668;52.012;8.724;2023-02-02T04:07:09;100417.91;;;6.69;99.51
11223;BME280;5668;52.012;8.724;2023-02-02T04:09:36;100416.06;;;6.71;100.00
11223;BME280;5668;52.012;8.724;2023-02-02T04:12:05;100421.22;;;6.71;100.00
11223;BME280;5668;52.012;8.724;2023-02-02T04:14:32;100415.22;;;6.70;99.71
11223;BME280;5668;52.012;8.724;2023-02-02T04:17:01;100415.00;;;6.75;99.71
11223;BME280;5668;52.012;8.724;2023-02-02T04:19:28;100421.06;;;6.74;99.39
11223;BME280;5668;52.012;8.724;2023-02-02T04:21:55;100423.66;;;6.74;99.89
11223;BME280;5668;52.012;8.724;2023-02-02T04:24:23;100418.50;;;6.74;100.00
11223;BME280;5668;52.012;8.724;2023-02-02T04:26:50;100423.66;;;6.74;100.00
11223;BME280;5668;52.012;8.724;2023-02-02T04:29:19;100421.00;;;6.75;100.00
11223;BME280;5668;52.012;8.724;2023-02-02T04:31:46;100427.00;;;6.76;99.80
11223;BME280;5668;52.012;8.724;2023-02-02T04:34:16;100425.25;;;6.76;99.95
11223;BME280;5668;52.012;8.724;2023-02-02T04:36:43;100424.25;;;6.79;100.00
11223;BME280;5668;52.012;8.724;2023-02-02T04:39:10;100425.00;;;6.81;100.00
11223;BME280;5668;52.012;8.724;2023-02-02T04:41:38;100430.09;;;6.82;100.00
11223;BME280;5668;52.012;8.724;2023-02-02T04:44:12;100430.16;;;6.81;100.00
11223;BME280;5668;52.012;8.724;2023-02-02T04:46:41;100422.34;;;6.82;100.00
11223;BME280;5668;52.012;8.724;2023-02-02T04:49:09;100419.84;;;6.81;100.00
11223;BME280;5668;52.012;8.724;2023-02-02T04:51:37;100426.69;;;6.82;100.00
11223;BME280;5668;52.012;8.724;2023-02-02T04:54:05;100429.00;;;6.86;100.00
11223;BME280;5668;52.012;8.724;2023-02-02T04:56:33;100432.44;;;6.87;100.00
11223;BME280;5668;52.012;8.724;2023-02-02T04:59:00;100425.50;;;6.87;100.00
11223;BME280;5668;52.012;8.724;2023-02-02T05:01:28;100426.34;;;6.88;100.00
11223;BME280;5668;52.012;8.724;2023-02-02T05:03:57;100429.84;;;6.87;100.00
11223;BME280;5668;52.012;8.724;2023-02-02T05:06:24;100434.16;;;6.86;100.00
11223;BME280;5668;52.012;8.724;2023-02-02T05:08:51;100431.50;;;6.88;100.00
11223;BME280;5668;52.012;8.724;2023-02-02T05:11:20;100427.19;;;6.88;100.00
11223;BME280;5668;52.012;8.724;2023-02-02T05:13:49;100435.59;;;6.92;100.00
11223;BME280;5668;52.012;8.724;2023-02-02T05:16:18;100425.38;;;6.90;100.00
11223;BME280;5668;52.012;8.724;2023-02-02T05:18:48;100429.69;;;6.90;100.00
11223;BME280;5668;52.012;8.724;2023-02-02T05:21:17;100432.34;;;6.88;100.00
11223;BME280;5668;52.012;8.724;2023-02-02T05:23:45;100438.34;;;6.89;100.00
11223;BME280;5668;52.012;8.724;2023-02-02T05:26:17;100434.09;;;6.88;99.85
11223;BME280;5668;52.012;8.724;2023-02-02T05:28:45;100431.50;;;6.88;99.41
11223;BME280;5668;52.012;8.724;2023-02-02T05:31:13;100429.78;;;6.88;98.73
11223;BME280;5668;52.012;8.724;2023-02-02T05:33:41;100443.66;;;6.86;98.93
11223;BME280;5668;52.012;8.724;2023-02-02T05:36:08;100446.25;;;6.86;98.94
11223;BME280;5668;52.012;8.724;2023-02-02T05:38:37;100445.34;;;6.87;98.00
11223;BME280;5668;52.012;8.724;2023-02-02T05:41:04;100442.75;;;6.87;98.01
11223;BME280;5668;52.012;8.724;2023-02-02T05:43:32;100444.34;;;6.89;98.89
11223;BME280;5668;52.012;8.724;2023-02-02T05:46:00;100439.19;;;6.89;98.34
11223;BME280;5668;52.012;8.724;2023-02-02T05:48:28;100453.84;;;6.89;97.88
11223;BME280;5668;52.012;8.724;2023-02-02T05:51:00;100458.94;;;6.90;98.26
11223;BME280;5668;52.012;8.724;2023-02-02T05:53:29;100468.25;;;6.93;97.80
11223;BME280;5668;52.012;8.724;2023-02-02T05:55:58;100459.78;;;6.91;97.83
11223;BME280;5668;52.012;8.724;2023-02-02T05:58:26;100465.09;;;6.88;97.15
11223;BME280;5668;52.012;8.724;2023-02-02T06:00:53;100468.59;;;6.87;97.25
11223;BME280;5668;52.012;8.724;2023-02-02T06:03:21;100479.81;;;6.86;97.40
11223;BME280;5668;52.012;8.724;2023-02-02T06:05:48;100479.00;;;6.85;96.61
11223;BME280;5668;52.012;8.724;2023-02-02T06:08:15;100483.31;;;6.85;97.11
11223;BME280;5668;52.012;8.724;2023-02-02T06:10:42;100476.34;;;6.87;96.44
11223;BME280;5668;52.012;8.724;2023-02-02T06:13:11;100478.16;;;6.85;95.71
11223;BME280;5668;52.012;8.724;2023-02-02T06:15:38;100485.06;;;6.84;96.71
11223;BME280;5668;52.012;8.724;2023-02-02T06:18:07;100481.44;;;6.88;96.71
11223;BME280;5668;52.012;8.724;2023-02-02T06:20:34;100483.19;;;6.88;95.75
11223;BME280;5668;52.012;8.724;2023-02-02T06:23:02;100490.78;;;6.91;96.23
11223;BME280;5668;52.012;8.724;2023-02-02T06:25:29;100494.28;;;6.90;96.42
11223;BME280;5668;52.012;8.724;2023-02-02T06:27:57;100491.00;;;6.86;96.32
11223;BME280;5668;52.012;8.724;2023-02-02T06:30:26;100498.81;;;6.85;96.57
11223;BME280;5668;52.012;8.724;2023-02-02T06:32:53;100501.34;;;6.86;96.84
11223;BME280;5668;52.012;8.724;2023-02-02T06:35:21;100507.34;;;6.87;96.75
11223;BME280;5668;52.012;8.724;2023-02-02T06:37:48;100505.66;;;6.86;96.57
11223;BME280;5668;52.012;8.724;2023-02-02T06:40:16;100510.91;;;6.84;96.60
11223;BME280;5668;52.012;8.724;2023-02-02T06:42:44;100509.16;;;6.85;96.59
11223;BME280;5668;52.012;8.724;2023-02-02T06:45:11;100515.25;;;6.84;97.00
11223;BME280;5668;52.012;8.724;2023-02-02T06:47:40;100517.97;;;6.81;97.01
11223;BME280;5668;52.012;8.724;2023-02-02T06:50:09;100523.28;;;6.78;97.04
11223;BME280;5668;52.012;8.724;2023-02-02T06:52:37;100525.88;;;6.78;97.07
11223;BME280;5668;52.012;8.724;2023-02-02T06:55:05;100526.97;;;6.74;97.69
11223;BME280;5668;52.012;8.724;2023-02-02T06:57:32;100522.69;;;6.73;97.60
11223;BME280;5668;52.012;8.724;2023-02-02T06:59:59;100533.94;;;6.72;98.40
11223;BME280;5668;52.012;8.724;2023-02-02T07:02:27;100528.09;;;6.68;98.07
11223;BME280;5668;52.012;8.724;2023-02-02T07:04:55;100531.66;;;6.66;97.91
11223;BME280;5668;52.012;8.724;2023-02-02T07:07:22;100528.50;;;6.60;98.71
11223;BME280;5668;52.012;8.724;2023-02-02T07:09:49;100528.50;;;6.60;98.85
11223;BME280;5668;52.012;8.724;2023-02-02T07:12:17;100534.56;;;6.59;98.30
11223;BME280;5668;52.012;8.724;2023-02-02T07:14:44;100542.25;;;6.61;98.49
11223;BME280;5668;52.012;8.724;2023-02-02T07:17:11;100549.16;;;6.60;98.24
11223;BME280;5668;52.012;8.724;2023-02-02T07:19:39;100539.81;;;6.58;98.63
11223;BME280;5668;52.012;8.724;2023-02-02T07:22:07;100548.38;;;6.58;98.14
11223;BME280;5668;52.012;8.724;2023-02-02T07:24:34;100546.72;;;6.57;98.18
11223;BME280;5668;52.012;8.724;2023-02-02T07:27:03;100544.06;;;6.59;98.25
11223;BME280;5668;52.012;8.724;2023-02-02T07:29:30;100550.06;;;6.59;97.78
11223;BME280;5668;52.012;8.724;2023-02-02T07:31:57;100542.31;;;6.59;98.49
11223;BME280;5668;52.012;8.724;2023-02-02T07:34:25;100550.06;;;6.59;98.47
11223;BME280;5668;52.012;8.724;2023-02-02T07:36:52;100545.03;;;6.56;98.13
11223;BME280;5668;52.012;8.724;2023-02-02T07:39:20;100545.03;;;6.56;98.87
11223;BME280;5668;52.012;8.724;2023-02-02T07:41:48;100551.03;;;6.57;98.99
11223;BME280;5668;52.012;8.724;2023-02-02T07:44:15;100547.69;;;6.55;99.10
11223;BME280;5668;52.012;8.724;2023-02-02T07:46:43;100549.53;;;6.53;98.53
11223;BME280;5668;52.012;8.724;2023-02-02T07:49:12;100552.94;;;6.53;98.35
11223;BME280;5668;52.012;8.724;2023-02-02T07:51:40;100555.53;;;6.53;98.43
11223;BME280;5668;52.012;8.724;2023-02-02T07:54:08;100559.00;;;6.52;98.92
11223;BME280;5668;52.012;8.724;2023-02-02T07:56:37;100561.66;;;6.51;98.27
11223;BME280;5668;52.012;8.724;2023-02-02T07:59:04;100564.31;;;6.49;98.38
11223;BME280;5668;52.012;8.724;2023-02-02T08:01:32;100564.47;;;6.46;98.97
11223;BME280;5668;52.012;8.724;2023-02-02T08:04:00;100573.88;;;6.47;99.29
11223;BME280;5668;52.012;8.724;2023-02-02T08:06:30;100576.63;;;6.44;99.54
11223;BME280;5668;52.012;8.724;2023-02-02T08:08:59;100580.09;;;6.43;99.23
11223;BME280;5668;52.012;8.724;2023-02-02T08:11:28;100578.56;;;6.39;98.89
11223;BME280;5668;52.012;8.724;2023-02-02T08:13:58;100586.31;;;6.39;99.08
11223;BME280;5668;52.012;8.724;2023-02-02T08:16:27;100584.56;;;6.40;99.66
11223;BME280;5668;52.012;8.724;2023-02-02T08:18:55;100584.66;;;6.38;99.77
11223;BME280;5668;52.012;8.724;2023-02-02T08:21:23;100588.91;;;6.39;99.23
11223;BME280;5668;52.012;8.724;2023-02-02T08:23:51;100583.72;;;6.39;99.11
11223;BME280;5668;52.012;8.724;2023-02-02T08:26:20;100583.72;;;6.39;98.98
11223;BME280;5668;52.012;8.724;2023-02-02T08:28:52;100590.56;;;6.40;99.68
11223;BME280;5668;52.012;8.724;2023-02-02T08:31:23;100594.06;;;6.39;99.80
11223;BME280;5668;52.012;8.724;2023-02-02T08:33:51;100597.41;;;6.41;99.55
11223;BME280;5668;52.012;8.724;2023-02-02T08:36:21;100593.16;;;6.40;99.80
11223;BME280;5668;52.012;8.724;2023-02-02T08:38:49;100598.41;;;6.39;99.63
11223;BME280;5668;52.012;8.724;2023-02-02T08:41:19;100606.97;;;6.39;100.00
11223;BME280;5668;52.012;8.724;2023-02-02T08:43:46;100611.16;;;6.42;100.00
11223;BME280;5668;52.012;8.724;2023-02-02T08:46:15;100611.22;;;6.40;100.00
11223;BME280;5668;52.012;8.724;2023-02-02T08:48:45;100613.72;;;6.42;99.95
11223;BME280;5668;52.012;8.724;2023-02-02T08:51:14;100610.25;;;6.43;100.00
11223;BME280;5668;52.012;8.724;2023-02-02T08:53:42;100615.41;;;6.43;100.00
11223;BME280;5668;52.012;8.724;2023-02-02T08:56:11;100612.91;;;6.41;100.00
11223;BME280;5668;52.012;8.724;2023-02-02T08:58:43;100617.22;;;6.41;100.00
11223;BME280;5668;52.012;8.724;2023-02-02T09:01:13;100619.81;;;6.41;100.00
11223;BME280;5668;52.012;8.724;2023-02-02T09:03:40;100620.63;;;6.41;100.00
11223;BME280;5668;52.012;8.724;2023-02-02T09:06:11;100625.72;;;6.43;100.00
11223;BME280;5668;52.012;8.724;2023-02-02T09:08:38;100632.63;;;6.42;99.88
11223;BME280;5668;52.012;8.724;2023-02-02T09:11:07;100638.56;;;6.44;99.73
11223;BME280;5668;52.012;8.724;2023-02-02T09:13:35;100638.56;;;6.44;99.82
11223;BME280;5668;52.012;8.724;2023-02-02T09:16:04;100636.00;;;6.44;99.49
11223;BME280;5668;52.012;8.724;2023-02-02T09:18:32;100648.06;;;6.44;100.00
11223;BME280;5668;52.012;8.724;2023-02-02T09:21:00;100654.97;;;6.43;100.00
11223;BME280;5668;52.012;8.724;2023-02-02T09:23:30;100658.38;;;6.44;99.47
11223;BME280;5668;52.012;8.724;2023-02-02T09:26:08;100655.81;;;6.44;99.71
11223;BME280;5668;52.012;8.724;2023-02-02T09:28:37;100662.72;;;6.43;99.92
11223;BME280;5668;52.012;8.724;2023-02-02T09:31:04;100670.50;;;6.42;100.00
11223;BME280;5668;52.012;8.724;2023-02-02T09:33:32;100664.44;;;6.43;100.00
11223;BME280;5668;52.012;8.724;2023-02-02T09:36:04;100667.81;;;6.45;100.00
11223;BME280;5668;52.012;8.724;2023-02-02T09:38:32;100669.56;;;6.44;100.00
11223;BME280;5668;52.012;8.724;2023-02-02T09:41:00;100674.72;;;6.44;100.00
11223;BME280;5668;52.012;8.724;2023-02-02T09:43:38;100672.13;;;6.44;99.98
11223;BME280;5668;52.012;8.724;2023-02-02T09:46:15;100683.22;;;6.46;100.00
11223;BME280;5668;52.012;8.724;2023-02-02T09:48:48;100680.47;;;6.49;100.00
11223;BME280;5668;52.012;8.724;2023-02-02T09:51:22;100671.91;;;6.49;100.00
11223;BME280;5668;52.012;8.724;2023-02-02T09:53:57;100686.41;;;6.51;100.00
11223;BME280;5668;52.012;8.724;2023-02-02T09:56:30;100693.19;;;6.54;100.00
11223;BME280;5668;52.012;8.724;2023-02-02T09:59:01;100693.25;;;6.52;100.00
11223;BME280;5668;52.012;8.724;2023-02-02T10:01:32;100689.78;;;6.53;100.00
11223;BME280;5668;52.012;8.724;2023-02-02T10:04:05;100690.63;;;6.54;100.00
11223;BME280;5668;52.012;8.724;2023-02-02T10:06:35;100682.78;;;6.55;100.00
11223;BME280;5668;52.012;8.724;2023-02-02T10:09:16;100692.25;;;6.55;100.00
11223;BME280;5668;52.012;8.724;2023-02-02T10:11:50;100700.09;;;6.53;100.00
11223;BME280;5668;52.012;8.724;2023-02-02T10:14:24;100694.00;;;6.54;100.00
11223;BME280;5668;52.012;8.724;2023-02-02T10:16:55;100694.00;;;6.54;100.00
11223;BME280;5668;52.012;8.724;2023-02-02T10:19:24;100700.09;;;6.53;100.00
11223;BME280;5668;52.012;8.724;2023-02-02T10:22:01;100689.78;;;6.53;100.00
11223;BME280;5668;52.012;8.724;2023-02-02T10:24:33;100696.59;;;6.54;100.00
11223;BME280;5668;52.012;8.724;2023-02-02T10:27:03;100702.59;;;6.55;100.00
11223;BME280;5668;52.012;8.724;2023-02-02T10:29:39;100708.59;;;6.55;100.00
11223;BME280;5668;52.012;8.724;2023-02-02T10:32:17;100707.69;;;6.56;100.00
11223;BME280;5668;52.012;8.724;2023-02-02T10:34:59;100711.94;;;6.57;100.00
11223;BME280;5668;52.012;8.724;2023-02-02T10:37:35;100713.69;;;6.57;100.00
11223;BME280;5668;52.012;8.724;2023-02-02T10:40:14;100717.94;;;6.58;100.00
11223;BME280;5668;52.012;8.724;2023-02-02T10:42:52;100717.94;;;6.58;100.00
11223;BME280;5668;52.012;8.724;2023-02-02T10:45:35;100734.13;;;6.61;100.00
11223;BME280;5668;52.012;8.724;2023-02-02T10:48:13;100723.78;;;6.61;100.00
11223;BME280;5668;52.012;8.724;2023-02-02T10:50:42;100735.06;;;6.60;100.00
11223;BME280;5668;52.012;8.724;2023-02-02T10:53:13;100732.38;;;6.62;100.00
11223;BME280;5668;52.012;8.724;2023-02-02T10:55:47;100739.16;;;6.65;100.00
11223;BME280;5668;52.012;8.724;2023-02-02T10:58:22;100739.16;;;6.65;100.00
11223;BME280;5668;52.012;8.724;2023-02-02T11:00:53;100741.72;;;6.65;100.00
11223;BME280;5668;52.012;8.724;2023-02-02T11:03:23;100743.41;;;6.66;100.00
11223;BME280;5668;52.012;8.724;2023-02-02T11:05:52;100742.50;;;6.67;100.00
11223;BME280;5668;52.012;8.724;2023-02-02T11:08:39;100743.34;;;6.67;100.00
11223;BME280;5668;52.012;8.724;2023-02-02T11:11:16;100746.75;;;6.68;100.00
11223;BME280;5668;52.012;8.724;2023-02-02T11:13:48;100750.19;;;6.68;100.00
11223;BME280;5668;52.012;8.724;2023-02-02T11:16:23;100754.34;;;6.71;100.00
11223;BME280;5668;52.012;8.724;2023-02-02T11:18:52;100752.66;;;6.70;100.00
11223;BME280;5668;52.012;8.724;2023-02-02T11:21:21;100750.88;;;6.72;100.00
11223;BME280;5668;52.012;8.724;2023-02-02T11:23:54;100756.88;;;6.72;100.00
11223;BME280;5668;52.012;8.724;2023-02-02T11:26:25;100754.22;;;6.74;100.00
11223;BME280;5668;52.012;8.724;2023-02-02T11:28:54;100752.41;;;6.76;100.00
11223;BME280;5668;52.012;8.724;2023-02-02T11:31:35;100757.41;;;6.79;100.00
11223;BME280;5668;52.012;8.724;2023-02-02T11:34:15;100748.00;;;6.78;100.00
11223;BME280;5668;52.012;8.724;2023-02-02T11:37:11;100759.09;;;6.80;100.00
11223;BME280;5668;52.012;8.724;2023-02-02T11:39:38;100760.00;;;6.79;100.00
11223;BME280;5668;52.012;8.724;2023-02-02T11:42:15;100751.28;;;6.81;100.00
11223;BME280;5668;52.012;8.724;2023-02-02T11:44:45;100760.78;;;6.81;100.00
11223;BME280;5668;52.012;8.724;2023-02-02T11:47:19;100765.03;;;6.82;100.00
11223;BME280;5668;52.012;8.724;2023-02-02T11:49:47;100766.72;;;6.83;100.00
11223;BME280;5668;52.012;8.724;2023-02-02T11:52:19;100764.97;;;6.83;100.00
11223;BME280;5668;52.012;8.724;2023-02-02T11:54:48;100776.03;;;6.85;100.00
11223;BME280;5668;52.012;8.724;2023-02-02T11:57:19;100765.63;;;6.87;100.00
11223;BME280;5668;52.012;8.724;2023-02-02T11:59:49;100761.38;;;6.86;100.00
11223;BME280;5668;52.012;8.724;2023-02-02T12:02:28;100766.34;;;6.90;100.00
11223;BME280;5668;52.012;8.724;2023-02-02T12:05:12;100765.50;;;6.90;100.00
11223;BME280;5668;52.012;8.724;2023-02-02T12:07:41;100767.19;;;6.91;100.00
11223;BME280;5668;52.012;8.724;2023-02-02T12:10:17;100767.19;;;6.91;100.00
11223;BME280;5668;52.012;8.724;2023-02-02T12:13:04;100760.19;;;6.93;100.00
11223;BME280;5668;52.012;8.724;2023-02-02T12:15:42;100766.97;;;6.95;100.00
11223;BME280;5668;52.012;8.724;2023-02-02T12:18:34;100755.72;;;6.96;99.90
11223;BME280;5668;52.012;8.724;2023-02-02T12:21:08;100763.41;;;6.98;100.00
11223;BME280;5668;52.012;8.724;2023-02-02T12:23:55;100760.88;;;6.96;99.91
11223;BME280;5668;52.012;8.724;2023-02-02T12:26:27;100754.03;;;6.95;99.69
11223;BME280;5668;52.012;8.724;2023-02-02T12:29:22;100753.19;;;6.95;99.55
11223;BME280;5668;52.012;8.724;2023-02-02T12:32:25;100759.97;;;6.97;99.80
11223;BME280;5668;52.012;8.724;2023-02-02T12:35:01;100759.06;;;6.98;99.45
11223;BME280;5668;52.012;8.724;2023-02-02T12:37:41;100757.16;;;7.02;99.13
11223;BME280;5668;52.012;8.724;2023-02-02T12:40:31;100762.31;;;7.02;99.28
11223;BME280;5668;52.012;8.724;2023-02-02T12:43:17;100768.34;;;7.03;99.31
11223;BME280;5668;52.012;8.724;2023-02-02T12:46:04;100766.53;;;7.05;99.56
11223;BME280;5668;52.012;8.724;2023-02-02T12:48:46;100763.94;;;7.05;98.98
11223;BME280;5668;52.012;8.724;2023-02-02T12:51:27;100771.69;;;7.05;98.58
11223;BME280;5668;52.012;8.724;2023-02-02T12:54:16;100763.09;;;7.04;97.95
11223;BME280;5668;52.012;8.724;2023-02-02T12:56:53;100767.28;;;7.07;98.28
11223;BME280;5668;52.012;8.724;2023-02-02T12:59:43;100769.94;;;7.05;98.70
11223;BME280;5668;52.012;8.724;2023-02-02T13:02:20;100769.94;;;7.05;98.35
11223;BME280;5668;52.012;8.724;2023-02-02T13:05:01;100776.09;;;7.03;98.44
11223;BME280;5668;52.012;8.724;2023-02-02T13:07:37;100781.19;;;7.04;98.70
11223;BME280;5668;52.012;8.724;2023-02-02T13:10:16;100774.28;;;7.05;98.44
11223;BME280;5668;52.012;8.724;2023-02-02T13:12:51;100773.44;;;7.04;98.23
11223;BME280;5668;52.012;8.724;2023-02-02T13:15:21;100776.09;;;7.03;97.66
11223;BME280;5668;52.012;8.724;2023-02-02T13:17:53;100774.47;;;7.00;97.98
11223;BME280;5668;52.012;8.724;2023-02-02T13:20:36;100777.00;;;7.02;98.96
11223;BME280;5668;52.012;8.724;2023-02-02T13:23:08;100776.84;;;7.05;98.37
11223;BME280;5668;52.012;8.724;2023-02-02T13:25:42;100777.63;;;7.07;99.39
11223;BME280;5668;52.012;8.724;2023-02-02T13:28:17;100780.97;;;7.09;98.94
11223;BME280;5668;52.012;8.724;2023-02-02T13:30:49;100781.78;;;7.09;98.90
11223;BME280;5668;52.012;8.724;2023-02-02T13:33:23;100784.31;;;7.11;98.86
11223;BME280;5668;52.012;8.724;2023-02-02T13:35:53;100781.66;;;7.12;99.20